createdAt,value
2018-06-02T00:00:42.237Z,1027.63
2018-06-02T00:01:42.240Z,1027.62
2018-06-02T00:02:42.232Z,1027.63
2018-06-02T00:03:42.230Z,1027.62
2018-06-02T00:04:42.233Z,1027.65
2018-06-02T00:05:42.230Z,1027.69
2018-06-02T00:06:42.265Z,1027.69
2018-06-02T00:07:42.219Z,1027.68
2018-06-02T00:08:42.221Z,1027.68
2018-06-02T00:09:42.218Z,1027.64
2018-06-02T00:10:42.210Z,1027.65
2018-06-02T00:11:42.208Z,1027.64
2018-06-02T00:12:42.205Z,1027.67
2018-06-02T00:13:42.208Z,1027.66
2018-06-02T00:14:42.207Z,1027.65
2018-06-02T00:15:42.203Z,1027.6
2018-06-02T00:16:42.196Z,1027.59
2018-06-02T00:17:42.199Z,1027.55
2018-06-02T00:18:42.191Z,1027.53
2018-06-02T00:19:42.192Z,1027.5
2018-06-02T00:20:42.185Z,1027.51
2018-06-02T00:21:42.188Z,1027.48
2018-06-02T00:22:42.192Z,1027.44
2018-06-02T00:23:42.182Z,1027.43
2018-06-02T00:24:42.176Z,1027.48
2018-06-02T00:25:42.173Z,1027.47
2018-06-02T00:26:42.173Z,1027.46
2018-06-02T00:27:42.171Z,1027.43
2018-06-02T00:28:42.163Z,1027.46
2018-06-02T00:29:42.166Z,1027.45
2018-06-02T00:30:42.158Z,1027.45
2018-06-02T00:31:42.161Z,1027.44
2018-06-02T00:32:42.153Z,1027.49
2018-06-02T00:33:42.160Z,1027.51
2018-06-02T00:34:42.150Z,1027.5
2018-06-02T00:35:42.150Z,1027.54
2018-06-02T00:36:42.143Z,1027.54
2018-06-02T00:37:42.144Z,1027.53
2018-06-02T00:38:42.143Z,1027.59
2018-06-02T00:39:42.138Z,1027.6
2018-06-02T00:40:42.132Z,1027.61
2018-06-02T00:41:42.129Z,1027.65
2018-06-02T00:42:42.131Z,1027.66
2018-06-02T00:43:42.130Z,1027.72
2018-06-02T00:44:42.144Z,1027.73
2018-06-02T00:45:42.120Z,1027.77
2018-06-02T00:46:42.125Z,1027.77
2018-06-02T00:47:42.115Z,1027.76
2018-06-02T00:48:42.114Z,1027.73
2018-06-02T00:49:42.107Z,1027.74
2018-06-02T00:50:42.109Z,1027.74
2018-06-02T00:51:42.122Z,1027.73
2018-06-02T00:52:42.103Z,1027.73
2018-06-02T00:53:42.103Z,1027.72
2018-06-02T00:54:42.100Z,1027.7
2018-06-02T00:55:42.096Z,1027.75
2018-06-02T00:56:42.088Z,1027.73
2018-06-02T00:57:42.086Z,1027.74
2018-06-02T00:58:42.089Z,1027.73
2018-06-02T00:59:42.089Z,1027.73
2018-06-02T01:00:42.083Z,1027.78
2018-06-02T01:01:42.075Z,1027.75
2018-06-02T01:02:42.077Z,1027.76
2018-06-02T01:03:42.069Z,1027.75
2018-06-02T01:04:42.071Z,1027.74
2018-06-02T01:05:42.063Z,1027.73
2018-06-02T01:06:42.066Z,1027.74
2018-06-02T01:07:42.059Z,1027.71
2018-06-02T01:08:42.060Z,1027.7
2018-06-02T01:09:42.053Z,1027.72
2018-06-02T01:10:42.050Z,1027.71
2018-06-02T01:11:42.046Z,1027.7
2018-06-02T01:12:42.049Z,1027.7
2018-06-02T01:13:42.048Z,1027.67
2018-06-02T01:14:42.037Z,1027.69
2018-06-02T01:15:42.035Z,1027.68
2018-06-02T01:16:42.032Z,1027.7
2018-06-02T01:17:42.035Z,1027.66
2018-06-02T01:18:42.027Z,1027.68
2018-06-02T01:19:42.024Z,1027.69
2018-06-02T01:20:42.027Z,1027.69
2018-06-02T01:21:42.023Z,1027.67
2018-06-02T01:22:42.021Z,1027.69
2018-06-02T01:23:42.030Z,1027.67
2018-06-02T01:24:42.017Z,1027.68
2018-06-02T01:25:42.008Z,1027.67
2018-06-02T01:26:42.004Z,1027.64
2018-06-02T01:27:42.002Z,1027.7
2018-06-02T01:28:42.005Z,1027.66
2018-06-02T01:29:42.010Z,1027.63
2018-06-02T01:30:41.999Z,1027.62
2018-06-02T01:31:41.997Z,1027.63
2018-06-02T01:32:41.988Z,1027.62
2018-06-02T01:33:41.990Z,1027.61
2018-06-02T01:34:41.983Z,1027.62
2018-06-02T01:35:41.985Z,1027.62
2018-06-02T01:36:41.976Z,1027.59
2018-06-02T01:37:41.982Z,1027.59
2018-06-02T01:38:41.971Z,1027.57
2018-06-02T01:39:41.975Z,1027.59
2018-06-02T01:40:41.973Z,1027.58
2018-06-02T01:41:41.968Z,1027.56
2018-06-02T01:42:41.968Z,1027.55
2018-06-02T01:43:41.962Z,1027.54
2018-06-02T01:44:41.954Z,1027.56
2018-06-02T01:45:41.956Z,1027.53
2018-06-02T01:46:41.949Z,1027.49
2018-06-02T01:47:41.945Z,1027.5
2018-06-02T01:48:41.943Z,1027.5
2018-06-02T01:49:41.945Z,1027.42
2018-06-02T01:50:42.188Z,1027.45
2018-06-02T01:51:41.941Z,1027.45
2018-06-02T01:52:41.934Z,1027.44
2018-06-02T01:53:41.938Z,1027.44
2018-06-02T01:54:41.927Z,1027.46
2018-06-02T01:55:41.930Z,1027.5
2018-06-02T01:56:41.922Z,1027.53
2018-06-02T01:57:41.926Z,1027.56
2018-06-02T01:58:41.924Z,1027.55
2018-06-02T01:59:41.918Z,1027.64
2018-06-02T02:00:41.925Z,1027.6
2018-06-02T02:01:41.907Z,1027.58
2018-06-02T02:02:41.910Z,1027.59
2018-06-02T02:03:41.907Z,1027.6
2018-06-02T02:04:41.904Z,1027.63
2018-06-02T02:05:41.897Z,1027.63
2018-06-02T02:06:41.899Z,1027.62
2018-06-02T02:07:41.891Z,1027.61
2018-06-02T02:08:41.894Z,1027.62
2018-06-02T02:09:41.885Z,1027.63
2018-06-02T02:10:41.888Z,1027.62
2018-06-02T02:11:41.886Z,1027.65
2018-06-02T02:12:41.880Z,1027.62
2018-06-02T02:13:41.879Z,1027.59
2018-06-02T02:14:41.877Z,1027.64
2018-06-02T02:15:41.875Z,1027.6
2018-06-02T02:16:41.867Z,1027.6
2018-06-02T02:17:41.863Z,1027.57
2018-06-02T02:18:41.867Z,1027.62
2018-06-02T02:19:41.868Z,1027.62
2018-06-02T02:20:41.859Z,1027.6
2018-06-02T02:21:41.853Z,1027.55
2018-06-02T02:22:41.855Z,1027.57
2018-06-02T02:23:41.861Z,1027.59
2018-06-02T02:24:41.844Z,1027.62
2018-06-02T02:25:41.847Z,1027.6
2018-06-02T02:26:41.839Z,1027.59
2018-06-02T02:27:41.841Z,1027.59
2018-06-02T02:28:41.833Z,1027.59
2018-06-02T02:29:41.836Z,1027.6
2018-06-02T02:30:41.833Z,1027.57
2018-06-02T02:31:41.831Z,1027.57
2018-06-02T02:32:41.825Z,1027.57
2018-06-02T02:33:41.820Z,1027.56
2018-06-02T02:34:41.824Z,1027.58
2018-06-02T02:35:41.819Z,1027.59
2018-06-02T02:36:41.812Z,1027.62
2018-06-02T02:37:41.821Z,1027.62
2018-06-02T02:38:41.806Z,1027.63
2018-06-02T02:39:41.809Z,1027.65
2018-06-02T02:40:41.800Z,1027.61
2018-06-02T02:41:41.803Z,1027.62
2018-06-02T02:42:41.794Z,1027.57
2018-06-02T02:43:41.798Z,1027.59
2018-06-02T02:44:41.790Z,1027.53
2018-06-02T02:45:41.791Z,1027.53
2018-06-02T02:46:41.790Z,1027.52
2018-06-02T02:47:41.786Z,1027.5
2018-06-02T02:48:41.781Z,1027.53
2018-06-02T02:49:41.775Z,1027.54
2018-06-02T02:50:41.785Z,1027.51
2018-06-02T02:51:41.776Z,1027.53
2018-06-02T02:52:41.773Z,1027.51
2018-06-02T02:53:41.771Z,1027.49
2018-06-02T02:54:41.767Z,1027.5
2018-06-02T02:55:41.760Z,1027.48
2018-06-02T02:56:41.768Z,1027.53
2018-06-02T02:57:41.756Z,1027.53
2018-06-02T02:58:41.765Z,1027.53
2018-06-02T02:59:41.749Z,1027.53
2018-06-02T03:00:41.757Z,1027.51
2018-06-02T03:01:41.743Z,1027.54
2018-06-02T03:02:41.745Z,1027.53
2018-06-02T03:03:41.744Z,1027.56
2018-06-02T03:04:41.734Z,1027.52
2018-06-02T03:05:41.731Z,1027.54
2018-06-02T03:06:41.735Z,1027.56
2018-06-02T03:07:41.731Z,1027.54
2018-06-02T03:08:41.729Z,1027.54
2018-06-02T03:09:41.721Z,1027.55
2018-06-02T03:10:41.724Z,1027.55
2018-06-02T03:11:41.722Z,1027.57
2018-06-02T03:12:41.718Z,1027.57
2018-06-02T03:13:41.710Z,1027.56
2018-06-02T03:14:41.725Z,1027.55
2018-06-02T03:15:41.704Z,1027.51
2018-06-02T03:16:41.707Z,1027.56
2018-06-02T03:17:41.700Z,1027.54
2018-06-02T03:18:41.696Z,1027.53
2018-06-02T03:19:41.694Z,1027.55
2018-06-02T03:20:41.696Z,1027.51
2018-06-02T03:21:41.694Z,1027.5
2018-06-02T03:22:41.685Z,1027.52
2018-06-02T03:23:41.683Z,1027.49
2018-06-02T03:24:41.681Z,1027.51
2018-06-02T03:25:41.683Z,1027.5
2018-06-02T03:26:41.675Z,1027.52
2018-06-02T03:27:41.673Z,1027.54
2018-06-02T03:28:41.676Z,1027.54
2018-06-02T03:29:41.668Z,1027.59
2018-06-02T03:30:41.671Z,1027.56
2018-06-02T03:31:41.664Z,1027.54
2018-06-02T03:32:41.666Z,1027.55
2018-06-02T03:33:41.656Z,1027.58
2018-06-02T03:34:41.654Z,1027.55
2018-06-02T03:35:41.652Z,1027.55
2018-06-02T03:36:41.653Z,1027.51
2018-06-02T03:37:41.653Z,1027.49
2018-06-02T03:38:41.664Z,1027.48
2018-06-02T03:39:41.642Z,1027.46
2018-06-02T03:40:41.641Z,1027.48
2018-06-02T03:41:41.641Z,1027.49
2018-06-02T03:42:41.637Z,1027.48
2018-06-02T03:43:41.637Z,1027.46
2018-06-02T03:44:41.628Z,1027.51
2018-06-02T03:45:41.631Z,1027.46
2018-06-02T03:46:41.642Z,1027.5
2018-06-02T03:47:41.626Z,1027.47
2018-06-02T03:48:41.617Z,1027.46
2018-06-02T03:49:41.621Z,1027.45
2018-06-02T03:50:41.623Z,1027.44
2018-06-02T03:51:41.615Z,1027.43
2018-06-02T03:52:41.609Z,1027.46
2018-06-02T03:53:41.611Z,1027.43
2018-06-02T03:54:41.603Z,1027.41
2018-06-02T03:55:41.604Z,1027.42
2018-06-02T03:56:41.597Z,1027.4
2018-06-02T03:57:41.600Z,1027.42
2018-06-02T03:58:41.592Z,1027.39
2018-06-02T03:59:41.596Z,1027.39
2018-06-02T04:00:41.587Z,1027.38
2018-06-02T04:01:41.591Z,1027.35
2018-06-02T04:02:41.582Z,1027.35
2018-06-02T04:03:41.585Z,1027.36
2018-06-02T04:04:41.577Z,1027.31
2018-06-02T04:05:41.581Z,1027.32
2018-06-02T04:06:41.573Z,1027.34
2018-06-02T04:07:41.571Z,1027.34
2018-06-02T04:08:41.574Z,1027.29
2018-06-02T04:09:41.571Z,1027.33
2018-06-02T04:10:41.562Z,1027.28
2018-06-02T04:11:41.561Z,1027.31
2018-06-02T04:12:41.558Z,1027.32
2018-06-02T04:13:41.561Z,1027.33
2018-06-02T04:14:41.553Z,1027.33
2018-06-02T04:15:41.556Z,1027.29
2018-06-02T04:16:41.549Z,1027.31
2018-06-02T04:17:41.550Z,1027.32
2018-06-02T04:18:41.543Z,1027.32
2018-06-02T04:19:41.542Z,1027.24
2018-06-02T04:20:41.543Z,1027.29
2018-06-02T04:21:41.544Z,1027.29
2018-06-02T04:22:41.534Z,1027.27
2018-06-02T04:23:41.532Z,1027.25
2018-06-02T04:24:41.535Z,1027.25
2018-06-02T04:25:41.532Z,1027.25
2018-06-02T04:26:41.526Z,1027.26
2018-06-02T04:27:41.523Z,1027.28
2018-06-02T04:28:41.520Z,1027.26
2018-06-02T04:29:41.523Z,1027.23
2018-06-02T04:30:41.517Z,1027.27
2018-06-02T04:31:41.517Z,1027.24
2018-06-02T04:32:41.511Z,1027.32
2018-06-02T04:33:41.514Z,1027.28
2018-06-02T04:34:41.510Z,1027.26
2018-06-02T04:35:41.508Z,1027.25
2018-06-02T04:36:41.502Z,1027.26
2018-06-02T04:37:41.507Z,1027.22
2018-06-02T04:38:41.502Z,1027.27
2018-06-02T04:39:41.499Z,1027.27
2018-06-02T04:40:41.493Z,1027.24
2018-06-02T04:41:41.490Z,1027.17
2018-06-02T04:42:41.492Z,1027.21
2018-06-02T04:43:41.490Z,1027.15
2018-06-02T04:44:41.483Z,1027.18
2018-06-02T04:45:41.486Z,1027.19
2018-06-02T04:46:41.478Z,1027.18
2018-06-02T04:47:41.482Z,1027.2
2018-06-02T04:48:41.474Z,1027.25
2018-06-02T04:49:41.477Z,1027.22
2018-06-02T04:50:41.473Z,1027.22
2018-06-02T04:51:41.472Z,1027.25
2018-06-02T04:52:41.466Z,1027.26
2018-06-02T04:53:41.468Z,1027.23
2018-06-02T04:54:41.466Z,1027.28
2018-06-02T04:55:41.463Z,1027.28
2018-06-02T04:56:41.461Z,1027.25
2018-06-02T04:57:41.454Z,1027.28
2018-06-02T04:58:41.459Z,1027.29
2018-06-02T04:59:41.456Z,1027.28
2018-06-02T05:00:41.453Z,1027.25
2018-06-02T05:01:41.447Z,1027.26
2018-06-02T05:02:41.449Z,1027.25
2018-06-02T05:03:41.443Z,1027.23
2018-06-02T05:04:41.445Z,1027.22
2018-06-02T05:05:41.438Z,1027.25
2018-06-02T05:06:41.442Z,1027.26
2018-06-02T05:07:41.434Z,1027.26
2018-06-02T05:08:41.436Z,1027.22
2018-06-02T05:09:41.431Z,1027.24
2018-06-02T05:10:41.433Z,1027.24
2018-06-02T05:11:41.429Z,1027.26
2018-06-02T05:12:41.422Z,1027.26
2018-06-02T05:13:41.422Z,1027.27
2018-06-02T05:14:41.423Z,1027.27
2018-06-02T05:15:41.421Z,1027.22
2018-06-02T05:16:41.420Z,1027.25
2018-06-02T05:17:41.413Z,1027.24
2018-06-02T05:18:41.416Z,1027.25
2018-06-02T05:19:41.407Z,1027.29
2018-06-02T05:20:41.411Z,1027.31
2018-06-02T05:21:41.406Z,1027.28
2018-06-02T05:22:41.406Z,1027.31
2018-06-02T05:23:41.399Z,1027.31
2018-06-02T05:24:41.404Z,1027.31
2018-06-02T05:25:41.396Z,1027.35
2018-06-02T05:26:41.393Z,1027.38
2018-06-02T05:27:41.396Z,1027.34
2018-06-02T05:28:41.645Z,1027.29
2018-06-02T05:29:41.393Z,1027.33
2018-06-02T05:30:41.386Z,1027.32
2018-06-02T05:31:41.384Z,1027.26
2018-06-02T05:32:41.388Z,1027.26
2018-06-02T05:33:41.384Z,1027.25
2018-06-02T05:34:41.377Z,1027.24
2018-06-02T05:35:41.375Z,1027.26
2018-06-02T05:36:41.379Z,1027.24
2018-06-02T05:37:41.372Z,1027.21
2018-06-02T05:38:41.375Z,1027.24
2018-06-02T05:39:41.367Z,1027.21
2018-06-02T05:40:41.373Z,1027.21
2018-06-02T05:41:41.363Z,1027.2
2018-06-02T05:42:41.365Z,1027.17
2018-06-02T05:43:41.363Z,1027.15
2018-06-02T05:44:41.362Z,1027.14
2018-06-02T05:45:41.360Z,1027.13
2018-06-02T05:46:41.353Z,1027.12
2018-06-02T05:47:41.358Z,1027.12
2018-06-02T05:48:41.354Z,1027.12
2018-06-02T05:49:41.348Z,1027.11
2018-06-02T05:50:41.352Z,1027.09
2018-06-02T05:51:41.344Z,1027.04
2018-06-02T05:52:41.346Z,1027.05
2018-06-02T05:53:41.340Z,1027.08
2018-06-02T05:54:41.358Z,1027.02
2018-06-02T05:55:41.337Z,1027.02
2018-06-02T05:56:41.341Z,1026.99
2018-06-02T05:57:41.333Z,1026.9
2018-06-02T05:58:41.331Z,1026.9
2018-06-02T05:59:45.165Z,1026.87
2018-06-02T06:00:41.333Z,1026.83
2018-06-02T06:01:41.327Z,1026.85
2018-06-02T06:02:41.331Z,1026.86
2018-06-02T06:03:41.328Z,1026.79
2018-06-02T06:04:41.336Z,1026.74
2018-06-02T06:05:41.320Z,1026.68
2018-06-02T06:06:41.323Z,1026.64
2018-06-02T06:07:41.317Z,1026.64
2018-06-02T06:08:41.321Z,1026.6
2018-06-02T06:09:41.319Z,1026.6
2018-06-02T06:10:41.318Z,1026.58
2018-06-02T06:11:41.310Z,1026.56
2018-06-02T06:12:41.315Z,1026.56
2018-06-02T06:13:41.309Z,1026.55
2018-06-02T06:14:41.307Z,1026.53
2018-06-02T06:15:41.306Z,1026.53
2018-06-02T06:16:41.310Z,1026.52
2018-06-02T06:17:41.308Z,1026.51
2018-06-02T06:18:41.302Z,1026.49
2018-06-02T06:19:41.303Z,1026.49
2018-06-02T06:20:41.304Z,1026.48
2018-06-02T06:21:41.303Z,1026.48
2018-06-02T06:22:41.297Z,1026.4
2018-06-02T06:23:41.302Z,1026.45
2018-06-02T06:24:41.296Z,1026.41
2018-06-02T06:25:41.303Z,1026.38
2018-06-02T06:26:41.294Z,1026.37
2018-06-02T06:27:41.300Z,1026.33
2018-06-02T06:28:41.297Z,1026.31
2018-06-02T06:29:41.290Z,1026.29
2018-06-02T06:30:41.291Z,1026.28
2018-06-02T06:31:41.289Z,1026.23
2018-06-02T06:32:41.293Z,1026.19
2018-06-02T06:33:41.293Z,1026.15
2018-06-02T06:34:41.290Z,1026.13
2018-06-02T06:35:41.286Z,1026.1
2018-06-02T06:36:41.289Z,1026.03
2018-06-02T06:37:41.310Z,1026.03
2018-06-02T06:38:41.306Z,1025.96
2018-06-02T06:39:41.289Z,1025.96
2018-06-02T06:40:41.288Z,1025.93
2018-06-02T06:41:41.590Z,1025.93
2018-06-02T06:42:41.284Z,1025.86
2018-06-02T06:43:41.288Z,1025.83
2018-06-02T06:44:41.392Z,1025.82
2018-06-02T06:45:41.291Z,1025.81
2018-06-02T06:46:41.287Z,1025.76
2018-06-02T06:47:41.287Z,1025.78
2018-06-02T06:48:41.282Z,1025.81
2018-06-02T06:49:41.282Z,1025.8
2018-06-02T06:50:41.344Z,1025.8
2018-06-02T06:51:41.287Z,1025.75
2018-06-02T06:52:41.290Z,1025.65
2018-06-02T06:53:41.287Z,1025.58
2018-06-02T06:54:41.281Z,1025.55
2018-06-02T06:55:41.287Z,1025.53
2018-06-02T06:56:41.286Z,1025.51
2018-06-02T06:57:41.313Z,1025.47
2018-06-02T06:58:41.282Z,1025.45
2018-06-02T06:59:41.289Z,1025.42
2018-06-02T07:00:41.284Z,1025.44
2018-06-02T07:01:41.288Z,1025.42
2018-06-02T07:02:41.293Z,1025.35
2018-06-02T07:03:41.290Z,1025.4
2018-06-02T07:04:41.285Z,1025.4
2018-06-02T07:05:41.286Z,1025.32
2018-06-02T07:06:41.291Z,1025.32
2018-06-02T07:07:41.292Z,1025.33
2018-06-02T07:08:41.292Z,1025.29
2018-06-02T07:09:41.288Z,1025.25
2018-06-02T07:10:41.295Z,1025.21
2018-06-02T07:11:41.331Z,1025.23
2018-06-02T07:12:41.295Z,1025.26
2018-06-02T07:13:41.297Z,1025.21
2018-06-02T07:14:41.298Z,1025.23
2018-06-02T07:15:41.341Z,1025.21
2018-06-02T07:16:41.315Z,1025.21
2018-06-02T07:17:41.332Z,1025.17
2018-06-02T07:18:41.304Z,1025.14
2018-06-02T07:19:41.304Z,1025.08
2018-06-02T07:20:41.303Z,1025.12
2018-06-02T07:21:41.305Z,1025.06
2018-06-02T07:22:41.310Z,1025.08
2018-06-02T07:23:41.311Z,1024.99
2018-06-02T07:24:41.315Z,1024.91
2018-06-02T07:25:41.310Z,1024.84
2018-06-02T07:26:41.316Z,1024.72
2018-06-02T07:27:41.318Z,1024.63
2018-06-02T07:28:41.321Z,1024.53
2018-06-02T07:29:41.318Z,1024.4
2018-06-02T07:30:41.325Z,1024.2
2018-06-02T07:31:41.337Z,1024.12
2018-06-02T07:32:41.332Z,1024.03
2018-06-02T07:33:41.583Z,1023.88
2018-06-02T07:34:41.331Z,1023.81
2018-06-02T07:35:41.341Z,1023.7
2018-06-02T07:36:41.346Z,1023.6
2018-06-02T07:37:41.348Z,1023.45
2018-06-02T07:38:41.356Z,1023.39
2018-06-02T07:39:41.350Z,1023.38
2018-06-02T07:40:41.356Z,1023.4
2018-06-02T07:41:41.365Z,1023.44
2018-06-02T07:42:41.364Z,1023.44
2018-06-02T07:43:41.370Z,1023.53
2018-06-02T07:44:41.381Z,1023.6
2018-06-02T07:45:41.381Z,1023.64
2018-06-02T07:46:41.391Z,1023.69
2018-06-02T07:47:41.391Z,1023.74
2018-06-02T07:53:41.426Z,1023.59
2018-06-02T07:54:41.430Z,1023.61
2018-06-02T07:55:41.431Z,1023.62
2018-06-02T07:56:41.435Z,1023.56
2018-06-02T07:57:41.502Z,1023.44
2018-06-02T07:58:41.451Z,1023.31
2018-06-02T07:59:41.453Z,1023.14
2018-06-02T08:00:41.459Z,1023.09
2018-06-02T08:01:41.464Z,1022.97
2018-06-02T08:02:41.476Z,1022.9
2018-06-02T08:03:41.480Z,1022.91
2018-06-02T08:04:41.489Z,1022.86
2018-06-02T08:05:41.490Z,1022.77
2018-06-02T08:06:41.504Z,1022.7
2018-06-02T08:07:41.504Z,1022.65
2018-06-02T08:08:41.572Z,1022.68
2018-06-02T08:09:41.519Z,1022.77
2018-06-02T08:10:41.532Z,1022.76
2018-06-02T08:11:41.542Z,1022.82
2018-06-02T08:12:41.548Z,1022.87
2018-06-02T08:13:41.551Z,1022.93
2018-06-02T08:14:41.563Z,1022.9
2018-06-02T08:15:41.565Z,1022.94
2018-06-02T08:17:41.582Z,1023.11
2018-06-02T08:18:41.589Z,1023.16
2018-06-02T08:19:41.602Z,1023.26
2018-06-02T08:20:41.605Z,1023.24
2018-06-02T08:21:41.617Z,1023.3
2018-06-02T08:22:41.620Z,1023.32
2018-06-02T08:23:41.634Z,1023.35
2018-06-02T08:24:41.636Z,1023.38
2018-06-02T08:25:41.653Z,1023.36
2018-06-02T08:26:41.698Z,1023.29
2018-06-02T08:27:41.668Z,1023.32
2018-06-02T08:28:41.679Z,1023.33
2018-06-02T08:29:41.681Z,1023.31
2018-06-02T08:30:41.683Z,1023.37
2018-06-02T08:31:41.690Z,1023.49
2018-06-02T08:32:41.703Z,1023.53
2018-06-02T08:33:41.771Z,1023.37
2018-06-02T08:34:41.720Z,1023.31
2018-06-02T08:35:41.724Z,1022.92
2018-06-02T08:36:41.752Z,1022.52
2018-06-02T08:37:41.740Z,1022.19
2018-06-02T08:38:41.752Z,1022.08
2018-06-02T08:39:41.755Z,1021.89
2018-06-02T08:40:41.770Z,1021.73
2018-06-02T08:41:41.777Z,1021.79
2018-06-02T08:42:41.782Z,1021.77
2018-06-02T08:43:41.795Z,1021.83
2018-06-02T08:44:41.804Z,1021.55
2018-06-02T08:45:41.814Z,1021.44
2018-06-02T08:46:41.822Z,1021.61
2018-06-02T08:47:41.830Z,1021.12
2018-06-02T08:48:41.849Z,1021.24
2018-06-02T08:49:41.859Z,1021.45
2018-06-02T08:50:41.865Z,1021.81
2018-06-02T08:51:41.868Z,1022.14
2018-06-02T08:52:41.884Z,1022.34
2018-06-02T08:53:41.889Z,1022.61
2018-06-02T08:54:41.910Z,1022.81
2018-06-02T08:55:41.910Z,1022.82
2018-06-02T08:56:41.924Z,1022.98
2018-06-02T08:57:41.929Z,1023.04
2018-06-02T08:58:41.942Z,1023.09
2018-06-02T08:59:41.947Z,1023.08
2018-06-02T09:00:41.959Z,1023.1
2018-06-02T09:01:41.969Z,1023.1
2018-06-02T09:02:41.999Z,1023.18
2018-06-02T09:03:41.991Z,1023.22
2018-06-02T09:04:41.996Z,1023.35
2018-06-02T09:05:42.004Z,1023.46
2018-06-02T09:06:42.020Z,1023.56
2018-06-02T09:07:42.023Z,1023.68
2018-06-02T09:08:42.038Z,1023.67
2018-06-02T09:09:42.042Z,1023.67
2018-06-02T09:10:42.055Z,1023.71
2018-06-02T09:11:42.061Z,1023.82
2018-06-02T09:12:42.073Z,1023.83
2018-06-02T09:13:42.079Z,1023.93
2018-06-02T09:14:42.087Z,1024
2018-06-02T09:15:42.100Z,1023.96
2018-06-02T09:16:42.102Z,1023.86
2018-06-02T09:17:42.116Z,1023.78
2018-06-02T09:18:42.119Z,1023.82
2018-06-02T09:19:42.140Z,1023.85
2018-06-02T09:20:42.141Z,1023.87
2018-06-02T09:21:42.165Z,1023.92
2018-06-02T09:22:42.171Z,1023.95
2018-06-02T09:23:42.167Z,1023.89
2018-06-02T09:24:42.179Z,1023.84
2018-06-02T09:25:42.180Z,1023.8
2018-06-02T09:26:42.186Z,1023.78
2018-06-02T09:27:42.199Z,1023.82
2018-06-02T09:28:42.208Z,1023.83
2018-06-02T09:29:42.216Z,1023.79
2018-06-02T09:30:42.219Z,1023.78
2018-06-02T09:31:42.233Z,1023.74
2018-06-02T09:32:42.241Z,1023.72
2018-06-02T09:33:42.247Z,1023.71
2018-06-02T09:34:42.259Z,1023.73
2018-06-02T09:35:42.260Z,1023.74
2018-06-02T09:36:42.275Z,1023.69
2018-06-02T09:37:42.279Z,1023.64
2018-06-02T09:38:42.292Z,1023.65
2018-06-02T09:39:42.302Z,1023.57
2018-06-02T09:40:42.309Z,1023.52
2018-06-02T09:41:42.318Z,1023.49
2018-06-02T09:42:42.318Z,1023.5
2018-06-02T09:43:42.333Z,1023.51
2018-06-02T09:44:42.380Z,1023.51
2018-06-02T09:45:42.350Z,1023.47
2018-06-02T09:46:42.367Z,1023.43
2018-06-02T09:47:42.384Z,1023.44
2018-06-02T09:48:42.377Z,1023.35
2018-06-02T09:49:42.383Z,1023.23
2018-06-02T09:50:42.403Z,1023.12
2018-06-02T09:51:42.401Z,1023.02
2018-06-02T09:52:42.410Z,1022.95
2018-06-02T09:53:42.419Z,1023
2018-06-02T09:54:42.422Z,1023.16
2018-06-02T09:55:42.442Z,1023.18
2018-06-02T09:56:42.439Z,1023.33
2018-06-02T09:57:42.492Z,1023.37
2018-06-02T09:58:42.456Z,1023.36
2018-06-02T09:59:42.475Z,1023.34
2018-06-02T10:00:42.482Z,1023.33
2018-06-02T10:01:42.485Z,1023.32
2018-06-02T10:02:42.491Z,1023.23
2018-06-02T10:03:42.505Z,1023.14
2018-06-02T10:04:42.537Z,1023.07
2018-06-02T10:05:42.528Z,1023.05
2018-06-02T10:06:42.527Z,1022.98
2018-06-02T10:07:42.539Z,1022.86
2018-06-02T10:08:42.543Z,1022.96
2018-06-02T10:09:42.558Z,1022.98
2018-06-02T10:10:42.562Z,1023.03
2018-06-02T10:16:42.612Z,1023.08
2018-06-02T10:17:42.626Z,1023.07
2018-06-02T10:18:42.627Z,1022.99
2018-06-02T10:19:42.641Z,1022.85
2018-06-02T10:20:42.646Z,1022.85
2018-06-02T10:21:42.671Z,1023.04
2018-06-02T10:22:42.666Z,1023.27
2018-06-02T10:23:42.673Z,1023.38
2018-06-02T10:24:42.679Z,1023.43
2018-06-02T10:25:42.701Z,1023.53
2018-06-02T10:26:42.700Z,1023.54
2018-06-02T10:27:42.719Z,1023.51
2018-06-02T10:28:42.712Z,1023.61
2018-06-02T10:29:42.770Z,1023.65
2018-06-02T10:30:42.728Z,1023.61
2018-06-02T10:31:42.751Z,1023.58
2018-06-02T10:32:42.753Z,1023.57
2018-06-02T10:33:42.760Z,1023.57
2018-06-02T10:34:42.763Z,1023.56
2018-06-02T10:35:42.858Z,1023.59
2018-06-02T10:36:42.781Z,1023.65
2018-06-02T10:37:42.794Z,1023.72
2018-06-02T10:38:42.797Z,1023.71
2018-06-02T10:39:42.806Z,1023.72
2018-06-02T10:40:42.814Z,1023.71
2018-06-02T10:41:42.828Z,1023.63
2018-06-02T10:42:43.086Z,1023.51
2018-06-02T10:43:42.850Z,1023.43
2018-06-02T10:44:42.847Z,1023.34
2018-06-02T10:45:42.856Z,1023.32
2018-06-02T10:46:42.885Z,1023.33
2018-06-02T10:47:42.874Z,1023.34
2018-06-02T10:48:42.887Z,1023.38
2018-06-02T10:49:42.889Z,1023.32
2018-06-02T10:50:42.905Z,1023.21
2018-06-02T10:51:42.913Z,1023.02
2018-06-02T10:52:42.923Z,1022.89
2018-06-02T10:53:42.926Z,1022.84
2018-06-02T10:54:42.940Z,1022.79
2018-06-02T10:55:42.943Z,1022.74
2018-06-02T10:56:42.953Z,1022.79
2018-06-02T10:57:42.970Z,1022.83
2018-06-02T10:58:42.976Z,1022.75
2018-06-02T10:59:42.979Z,1022.72
2018-06-02T11:00:42.989Z,1022.64
2018-06-02T11:01:43.007Z,1022.47
2018-06-02T11:02:43.010Z,1022.35
2018-06-02T11:03:43.016Z,1022.29
2018-06-02T11:04:43.030Z,1022.27
2018-06-02T11:05:43.040Z,1022.26
2018-06-02T11:06:43.050Z,1022.36
2018-06-02T11:07:43.055Z,1022.47
2018-06-02T11:08:43.072Z,1022.68
2018-06-02T11:09:43.079Z,1022.74
2018-06-02T11:10:43.082Z,1022.8
2018-06-02T11:11:43.091Z,1022.87
2018-06-02T11:12:43.106Z,1022.96
2018-06-02T11:13:43.366Z,1023.19
2018-06-02T11:14:43.134Z,1023.32
2018-06-02T11:15:43.130Z,1023.41
2018-06-02T11:16:43.139Z,1023.68
2018-06-02T11:17:43.148Z,1023.8
2018-06-02T11:18:43.166Z,1023.88
2018-06-02T11:19:43.166Z,1023.83
2018-06-02T11:20:43.178Z,1023.87
2018-06-02T11:21:43.190Z,1023.9
2018-06-02T11:22:43.194Z,1023.96
2018-06-02T11:23:43.212Z,1024.01
2018-06-02T11:24:43.210Z,1024.03
2018-06-02T11:25:43.237Z,1024.2
2018-06-02T11:26:43.228Z,1024.3
2018-06-02T11:27:43.252Z,1024.33
2018-06-02T11:28:43.243Z,1024.41
2018-06-02T11:29:43.257Z,1024.45
2018-06-02T11:30:43.265Z,1024.53
2018-06-02T11:31:43.267Z,1024.52
2018-06-02T11:32:43.276Z,1024.53
2018-06-02T11:33:43.284Z,1024.51
2018-06-02T11:34:43.303Z,1024.49
2018-06-02T11:35:43.297Z,1024.47
2018-06-02T11:36:43.310Z,1024.43
2018-06-02T11:37:43.313Z,1024.46
2018-06-02T11:38:43.331Z,1024.42
2018-06-02T11:39:43.332Z,1024.42
2018-06-02T11:40:43.340Z,1024.48
2018-06-02T11:41:43.343Z,1024.45
2018-06-02T11:42:43.354Z,1024.49
2018-06-02T11:43:43.361Z,1024.5
2018-06-02T11:44:43.373Z,1024.49
2018-06-02T11:45:43.377Z,1024.51
2018-06-02T11:46:43.399Z,1024.53
2018-06-02T11:47:43.385Z,1024.51
2018-06-02T11:48:43.393Z,1024.48
2018-06-02T11:49:43.406Z,1024.5
2018-06-02T11:50:43.410Z,1024.46
2018-06-02T11:51:43.412Z,1024.46
2018-06-02T11:52:43.424Z,1024.39
2018-06-02T11:53:43.426Z,1024.31
2018-06-02T11:54:43.440Z,1024.22
2018-06-02T11:55:43.441Z,1024.12
2018-06-02T11:56:43.452Z,1024.03
2018-06-02T12:05:44.310Z,1023.76
2018-06-02T12:06:43.515Z,1023.78
2018-06-02T12:07:43.531Z,1023.79
2018-06-02T12:08:43.522Z,1023.75
2018-06-02T12:09:43.541Z,1023.9
2018-06-02T12:10:43.536Z,1023.95
2018-06-02T12:11:43.548Z,1023.9
2018-06-02T12:12:43.548Z,1023.89
2018-06-02T12:13:43.560Z,1023.78
2018-06-02T12:14:43.562Z,1023.81
2018-06-02T12:15:43.576Z,1023.79
2018-06-02T12:16:43.577Z,1023.88
2018-06-02T12:17:43.597Z,1023.91
2018-06-02T12:18:43.593Z,1023.93
2018-06-02T12:19:43.603Z,1024.05
2018-06-02T12:20:43.608Z,1024.06
2018-06-02T12:21:43.618Z,1023.96
2018-06-02T12:22:43.631Z,1023.9
2018-06-02T12:23:43.635Z,1023.77
2018-06-02T12:24:43.634Z,1023.65
2018-06-02T12:25:43.646Z,1023.57
2018-06-02T12:26:43.650Z,1023.5